Time;durP1;ratioP1;P1;durP2;ratioP2;P2;SDS_P1;SDS_P2;PMS_P1;PMS_P2;Temp;Humidity;BMP_temperature;BMP_pressure;BME280_temperature;BME280_humidity;BME280_pressure;Samples;Min_cycle;Max_cycle;Signal;HPM_P1;HPM_P2
2022/11/15 00:01:26;;;;;;;3.15;2.65;;;17.60;78.30;;;;;;5066473;28;20214;-70
2022/11/15 00:04:10;;;;;;;3.42;3.13;;;17.60;78.30;;;;;;5066153;28;20283;-69
2022/11/15 00:06:55;;;;;;;2.75;2.55;;;17.60;78.30;;;;;;5053240;28;20203;-69
2022/11/15 00:09:39;;;;;;;2.47;2.28;;;17.60;78.30;;;;;;5053041;28;20178;-69
2022/11/15 00:12:23;;;;;;;3.10;2.80;;;17.60;78.20;;;;;;5053075;28;20264;-69
2022/11/15 00:15:07;;;;;;;3.85;2.83;;;17.60;78.20;;;;;;5066413;28;20198;-69
2022/11/15 00:17:52;;;;;;;3.30;2.83;;;17.60;78.20;;;;;;5066202;28;20197;-69
2022/11/15 00:20:36;;;;;;;2.60;2.40;;;17.60;78.10;;;;;;5052114;28;20266;-69
2022/11/15 00:23:20;;;;;;;2.95;2.65;;;17.60;78.30;;;;;;5052812;28;20347;-70
2022/11/15 00:26:05;;;;;;;3.30;2.80;;;17.60;78.40;;;;;;5052953;28;20845;-69
2022/11/15 00:28:52;;;;;;;3.10;2.70;;;17.60;78.40;;;;;;5053027;28;20554;-69
2022/11/15 00:31:37;;;;;;;3.33;2.47;;;17.60;78.40;;;;;;5052837;28;20177;-69
2022/11/15 00:34:21;;;;;;;3.47;2.70;;;17.60;78.30;;;;;;5052734;28;20316;-69
2022/11/15 00:37:06;;;;;;;2.88;2.35;;;17.60;78.30;;;;;;5065874;28;20206;-69
2022/11/15 00:39:51;;;;;;;2.22;2.03;;;17.60;78.40;;;;;;5052628;28;20268;-69
2022/11/15 00:42:35;;;;;;;2.53;2.33;;;17.60;78.30;;;;;;5052452;28;20263;-69
2022/11/15 00:45:19;;;;;;;2.63;2.42;;;17.60;78.30;;;;;;5052685;28;20239;-69
2022/11/15 00:48:04;;;;;;;2.65;2.45;;;17.60;78.20;;;;;;5052556;28;20178;-69
2022/11/15 00:50:48;;;;;;;2.97;2.28;;;17.60;78.20;;;;;;5065613;28;20711;-69
2022/11/15 00:53:33;;;;;;;2.72;2.20;;;17.60;78.40;;;;;;5052338;28;20376;-69
2022/11/15 00:56:17;;;;;;;2.88;2.67;;;17.60;78.30;;;;;;5065690;28;20312;-69
2022/11/15 00:59:02;;;;;;;2.75;2.55;;;17.60;78.30;;;;;;5065858;28;20213;-69
2022/11/15 01:01:46;;;;;;;3.08;2.47;;;17.60;78.30;;;;;;5052546;28;20213;-69
2022/11/15 01:04:30;;;;;;;2.45;2.25;;;17.60;78.20;;;;;;5052375;28;20276;-69
2022/11/15 01:07:14;;;;;;;3.92;2.30;;;17.60;78.30;;;;;;5065583;28;20608;-69
2022/11/15 01:09:58;;;;;;;2.85;2.30;;;17.60;78.30;;;;;;5065342;28;20182;-69
2022/11/15 01:12:43;;;;;;;3.00;2.70;;;17.60;78.30;;;;;;5065526;28;20268;-69
2022/11/15 01:15:27;;;;;;;3.17;2.30;;;17.60;78.10;;;;;;5050825;28;20193;-69
2022/11/15 01:18:11;;;;;;;2.13;2.03;;;17.60;78.10;;;;;;5051124;28;20193;-68
2022/11/15 01:20:55;;;;;;;2.47;2.20;;;17.60;78.10;;;;;;5049302;28;20977;-69
2022/11/15 01:23:40;;;;;;;2.65;2.25;;;17.60;78.10;;;;;;5045168;28;20222;-70
2022/11/15 01:26:25;;;;;;;2.70;2.42;;;17.60;78.20;;;;;;5032336;28;20241;-69
2022/11/15 01:29:09;;;;;;;2.10;1.90;;;17.60;78.30;;;;;;5031190;28;20214;-69
2022/11/15 01:31:53;;;;;;;2.58;2.10;;;17.60;78.20;;;;;;5045388;28;20260;-69
2022/11/15 01:34:38;;;;;;;1.98;1.75;;;17.60;78.10;;;;;;5032255;28;20228;-70
2022/11/15 01:37:22;;;;;;;2.30;2.10;;;17.60;78.20;;;;;;5032075;28;20206;-69
2022/11/15 01:40:07;;;;;;;2.58;2.20;;;17.60;78.20;;;;;;5045317;28;20174;-70
2022/11/15 01:42:52;;;;;;;2.97;2.50;;;17.60;78.20;;;;;;5031943;28;20269;-69
2022/11/15 01:45:36;;;;;;;2.17;1.98;;;17.60;78.10;;;;;;5034300;28;20233;-69
2022/11/15 01:48:28;;;;;;;2.63;2.38;;;17.60;78.10;;;;;;5049242;28;20182;-68
2022/11/15 01:51:17;;;;;;;3.17;2.03;;;17.60;78.10;;;;;;5035008;28;20225;-70
2022/11/15 01:54:10;;;;;;;2.70;1.90;;;17.60;78.10;;;;;;5036207;28;20282;-69
2022/11/15 01:57:06;;;;;;;1.92;1.63;;;17.60;78.10;;;;;;5044539;28;20217;-69
2022/11/15 01:59:50;;;;;;;1.85;1.70;;;17.60;78.10;;;;;;5055820;28;20244;-69
2022/11/15 02:02:37;;;;;;;2.95;1.90;;;17.60;78.10;;;;;;5068804;28;20248;-69
2022/11/15 02:05:21;;;;;;;2.30;1.88;;;17.60;78.10;;;;;;5054692;28;20189;-69
2022/11/15 02:08:06;;;;;;;2.03;1.83;;;17.60;78.10;;;;;;5068657;28;20256;-69
2022/11/15 02:10:51;;;;;;;1.85;1.70;;;17.60;78.10;;;;;;5055626;28;20185;-70
2022/11/15 02:13:37;;;;;;;2.10;1.92;;;17.60;78.10;;;;;;5068465;28;20280;-69
2022/11/15 02:16:21;;;;;;;2.17;1.98;;;17.60;78.10;;;;;;5068642;28;20178;-69
2022/11/15 02:19:40;;;;;;;2.45;1.90;;;17.60;78.00;;;;;;5068287;28;20225;-69
2022/11/15 02:22:54;;;;;;;3.00;2.13;;;17.60;78.00;;;;;;5068299;28;20181;-69
2022/11/15 02:26:07;;;;;;;2.13;1.92;;;17.60;78.10;;;;;;5081635;22;20249;-68
2022/11/15 02:29:10;;;;;;;2.85;1.98;;;17.60;78.00;;;;;;5035089;28;20178;-68
2022/11/15 02:32:11;;;;;;;2.40;2.15;;;17.60;78.10;;;;;;5048261;28;20170;-68
2022/11/15 02:35:17;;;;;;;1.70;1.60;;;17.60;78.00;;;;;;5035324;28;20709;-67
2022/11/15 02:38:32;;;;;;;2.08;1.70;;;17.50;77.70;;;;;;5035092;28;20203;-68
2022/11/15 02:41:26;;;;;;;1.90;1.80;;;17.60;77.90;;;;;;5034131;28;20179;-68
2022/11/15 02:44:34;;;;;;;2.25;1.92;;;17.60;77.90;;;;;;5035007;28;20213;-68
2022/11/15 02:47:22;;;;;;;2.33;1.90;;;17.50;77.70;;;;;;5034045;28;20183;-68
2022/11/15 02:50:15;;;;;;;1.77;1.55;;;17.50;77.70;;;;;;5033781;28;20554;-68
2022/11/15 02:52:59;;;;;;;2.03;1.83;;;17.50;77.90;;;;;;5034392;28;20234;-68
2022/11/15 02:55:50;;;;;;;2.17;1.80;;;17.60;77.80;;;;;;5016516;28;20231;-68
2022/11/15 02:59:23;;;;;;;3.05;1.77;;;17.50;77.60;;;;;;5014848;28;20181;-68
2022/11/15 03:02:26;;;;;;;1.70;1.60;;;17.50;77.60;;;;;;5015068;28;20195;-68
2022/11/15 03:05:41;;;;;;;1.65;1.48;;;17.50;77.70;;;;;;5014831;28;20227;-68
2022/11/15 03:08:51;;;;;;;2.35;1.80;;;17.50;77.60;;;;;;5014707;28;20235;-68
2022/11/15 03:11:44;;;;;;;2.00;1.80;;;17.60;77.70;;;;;;5014008;28;20191;-68
2022/11/15 03:15:06;;;;;;;1.70;1.60;;;17.50;77.70;;;;;;5014544;28;20725;-68
2022/11/15 03:18:21;;;;;;;1.80;1.70;;;17.50;77.50;;;;;;5013537;28;20184;-68
2022/11/15 03:21:09;;;;;;;1.67;1.58;;;17.50;77.50;;;;;;5014573;28;20222;-68
2022/11/15 03:23:58;;;;;;;1.77;1.67;;;17.50;77.50;;;;;;5013523;28;20223;-68
2022/11/15 03:26:45;;;;;;;1.80;1.58;;;17.50;77.60;;;;;;5014559;28;20199;-68
2022/11/15 03:29:41;;;;;;;1.73;1.63;;;17.50;77.50;;;;;;5014141;28;20195;-68
2022/11/15 03:32:33;;;;;;;1.85;1.73;;;17.50;77.50;;;;;;5013462;28;20258;-68
2022/11/15 03:35:22;;;;;;;1.70;1.60;;;17.50;77.70;;;;;;5022220;28;20785;-68
2022/11/15 03:38:26;;;;;;;1.77;1.60;;;17.50;77.50;;;;;;5014338;28;20250;-68
2022/11/15 03:41:30;;;;;;;2.10;1.40;;;17.50;77.40;;;;;;5014142;28;20562;-67
2022/11/15 03:44:41;;;;;;;1.80;1.50;;;17.50;77.50;;;;;;5026519;28;20292;-68
2022/11/15 03:47:34;;;;;;;1.60;1.50;;;17.50;77.60;;;;;;5033748;28;20218;-68
2022/11/15 03:50:22;;;;;;;1.48;1.38;;;17.50;77.40;;;;;;5033441;28;20179;-68
2022/11/15 03:53:08;;;;;;;1.40;1.30;;;17.50;77.50;;;;;;5032596;28;20209;-68
2022/11/15 03:55:52;;;;;;;2.25;1.52;;;17.50;77.50;;;;;;5032630;28;20762;-68
2022/11/15 03:58:36;;;;;;;2.03;1.60;;;17.50;77.40;;;;;;5032542;28;20175;-68
2022/11/15 04:01:20;;;;;;;1.63;1.52;;;17.50;77.30;;;;;;5032532;28;20655;-68
2022/11/15 04:04:04;;;;;;;2.30;1.70;;;17.50;78.00;;;;;;5032694;28;20249;-68
2022/11/15 04:06:48;;;;;;;1.67;1.58;;;17.50;77.50;;;;;;5032044;28;20701;-68
2022/11/15 04:09:32;;;;;;;1.60;1.50;;;17.50;77.50;;;;;;5032348;28;20186;-68
2022/11/15 04:12:30;;;;;;;1.50;1.40;;;17.50;77.50;;;;;;5033275;28;20221;-68
2022/11/15 04:15:22;;;;;;;1.60;1.50;;;17.50;77.50;;;;;;5032226;28;20764;-68
2022/11/15 04:18:06;;;;;;;1.70;1.60;;;17.50;77.30;;;;;;5032442;28;20183;-67
2022/11/15 04:24:12;;;;;;;1.77;1.40;;;17.50;77.50;;;;;;5033083;28;20225;-68
2022/11/15 04:26:56;;;;;;;1.75;1.52;;;17.50;77.50;;;;;;5032892;28;20209;-68
2022/11/15 04:29:40;;;;;;;1.60;1.50;;;17.50;77.40;;;;;;5031956;28;20229;-68
2022/11/15 04:32:24;;;;;;;1.90;1.50;;;17.50;77.30;;;;;;5033479;28;20206;-68
2022/11/15 04:35:09;;;;;;;1.50;1.40;;;17.50;77.40;;;;;;5031288;28;20306;-68
2022/11/15 04:37:54;;;;;;;1.58;1.40;;;17.50;77.40;;;;;;5032858;28;20178;-68
2022/11/15 04:40:38;;;;;;;1.50;1.40;;;17.50;77.40;;;;;;5031659;28;20182;-68
2022/11/15 04:43:23;;;;;;;1.77;1.65;;;17.50;77.30;;;;;;5032690;28;20218;-68
2022/11/15 04:46:07;;;;;;;1.90;1.70;;;17.50;77.30;;;;;;5032714;28;20217;-68
2022/11/15 04:48:53;;;;;;;1.90;1.55;;;17.50;77.40;;;;;;5032463;28;20266;-68
2022/11/15 04:51:37;;;;;;;1.60;1.50;;;17.50;77.30;;;;;;5032869;28;20363;-68
2022/11/15 04:54:22;;;;;;;1.50;1.40;;;17.50;77.50;;;;;;5032675;28;20214;-68
2022/11/15 04:57:06;;;;;;;2.15;1.85;;;17.50;77.40;;;;;;5031640;28;20241;-68
2022/11/15 04:59:50;;;;;;;1.70;1.60;;;17.50;77.30;;;;;;5031662;28;20247;-68
2022/11/15 05:05:38;;;;;;;1.40;1.30;;;17.50;77.40;;;;;;5031366;28;20233;-68
2022/11/15 05:08:22;;;;;;;1.92;1.77;;;17.50;77.40;;;;;;5031445;28;20198;-68
2022/11/15 05:11:06;;;;;;;1.85;1.70;;;17.50;77.30;;;;;;5031586;28;20205;-68
2022/11/15 05:13:50;;;;;;;1.65;1.55;;;17.50;77.30;;;;;;5030750;28;20280;-68
2022/11/15 05:16:35;;;;;;;1.98;1.70;;;17.50;77.30;;;;;;5031408;28;20218;-68
2022/11/15 05:19:19;;;;;;;2.17;1.70;;;17.50;77.40;;;;;;5031319;28;20187;-68
2022/11/15 05:22:03;;;;;;;1.60;1.50;;;17.50;77.40;;;;;;5032354;28;20194;-68
2022/11/15 05:24:47;;;;;;;2.10;1.70;;;17.50;77.40;;;;;;5032241;28;20217;-68
2022/11/15 05:27:33;;;;;;;1.80;1.65;;;17.50;77.40;;;;;;5032262;28;20206;-68
2022/11/15 05:30:17;;;;;;;2.67;1.80;;;17.50;77.50;;;;;;5030867;28;20241;-68
2022/11/15 05:33:02;;;;;;;1.60;1.50;;;17.50;77.30;;;;;;5031081;28;20265;-67
2022/11/15 05:35:54;;;;;;;1.70;1.55;;;17.50;77.30;;;;;;5031072;28;20265;-68
2022/11/15 05:38:39;;;;;;;2.55;2.13;;;17.50;77.40;;;;;;5031084;28;20182;-67
2022/11/15 05:41:38;;;;;;;2.28;2.08;;;17.50;77.50;;;;;;5029719;28;20249;-68
2022/11/15 05:44:26;;;;;;;2.63;2.35;;;17.50;77.40;;;;;;5011599;28;20243;-67
2022/11/15 05:47:17;;;;;;;2.55;2.00;;;17.50;77.40;;;;;;5011259;28;20622;-68
2022/11/15 05:50:02;;;;;;;2.85;2.55;;;17.50;77.30;;;;;;5011423;28;20617;-68
2022/11/15 05:52:48;;;;;;;2.38;1.75;;;17.50;77.40;;;;;;5011215;28;20207;-68
2022/11/15 05:55:32;;;;;;;2.33;2.13;;;17.50;77.40;;;;;;5012138;28;20219;-68
2022/11/15 05:58:19;;;;;;;2.92;2.20;;;17.50;77.30;;;;;;5011239;28;20176;-68
2022/11/15 06:01:04;;;;;;;2.78;2.33;;;17.50;77.30;;;;;;5010905;28;20690;-68
2022/11/15 06:03:48;;;;;;;3.35;2.28;;;17.50;77.30;;;;;;5012177;28;20187;-68
2022/11/15 06:06:33;;;;;;;2.65;2.17;;;17.50;77.40;;;;;;5011186;28;20188;-68
2022/11/15 06:09:17;;;;;;;2.33;2.13;;;17.50;77.50;;;;;;5011921;28;20238;-68
2022/11/15 06:12:01;;;;;;;2.15;1.95;;;17.50;77.40;;;;;;5011035;28;20183;-67
2022/11/15 06:14:45;;;;;;;2.20;2.00;;;17.50;77.30;;;;;;5010752;28;20260;-68
2022/11/15 06:17:29;;;;;;;2.25;2.05;;;17.50;77.30;;;;;;5016103;28;20198;-68
2022/11/15 06:20:13;;;;;;;2.13;1.92;;;17.50;77.30;;;;;;5030443;28;20206;-68
2022/11/15 06:22:59;;;;;;;2.30;2.10;;;17.50;77.40;;;;;;5031360;28;20197;-69
2022/11/15 06:25:44;;;;;;;2.50;2.30;;;17.50;77.40;;;;;;5029621;28;20272;-68
2022/11/15 06:28:30;;;;;;;2.40;2.17;;;17.50;77.30;;;;;;5030772;28;20191;-68
2022/11/15 06:31:14;;;;;;;2.30;2.10;;;17.50;77.30;;;;;;5031577;28;20194;-69
2022/11/15 06:33:58;;;;;;;3.00;2.38;;;17.50;77.30;;;;;;5032960;28;20237;-69
2022/11/15 06:36:43;;;;;;;3.75;2.20;;;17.50;77.20;;;;;;5033142;28;20202;-69
2022/11/15 06:39:27;;;;;;;2.00;1.80;;;17.50;77.30;;;;;;5033209;28;20209;-68
2022/11/15 06:42:11;;;;;;;2.20;2.00;;;17.50;77.20;;;;;;5034777;28;20270;-68
2022/11/15 06:44:55;;;;;;;3.17;2.80;;;17.50;77.20;;;;;;5034428;28;20222;-68
2022/11/15 06:47:46;;;;;;;2.35;2.15;;;17.50;77.20;;;;;;5034497;28;20264;-69
2022/11/15 06:50:31;;;;;;;3.08;2.30;;;17.50;77.10;;;;;;5032340;28;20665;-69
2022/11/15 06:53:15;;;;;;;2.88;2.42;;;17.50;77.20;;;;;;5013666;28;20278;-69
2022/11/15 06:56:01;;;;;;;2.22;2.03;;;17.50;77.20;;;;;;5013565;28;20274;-70
2022/11/15 06:58:45;;;;;;;2.45;2.25;;;17.50;77.10;;;;;;5013561;28;20710;-69
2022/11/15 07:01:29;;;;;;;2.45;2.17;;;17.50;77.10;;;;;;5014658;28;20687;-68
2022/11/15 07:04:13;;;;;;;2.80;2.35;;;17.50;77.00;;;;;;5031394;28;20250;-69
2022/11/15 07:06:57;;;;;;;2.83;2.10;;;17.50;77.10;;;;;;5033235;28;20685;-69
2022/11/15 07:09:41;;;;;;;3.10;2.10;;;17.50;77.10;;;;;;5033111;28;20206;-68
2022/11/15 07:12:26;;;;;;;2.90;2.40;;;17.50;77.20;;;;;;5033232;28;20209;-68
2022/11/15 07:15:10;;;;;;;2.75;2.50;;;17.50;77.00;;;;;;5033041;28;20222;-68
2022/11/15 07:17:55;;;;;;;2.50;2.30;;;17.50;77.00;;;;;;5033962;28;20254;-68
2022/11/15 07:20:39;;;;;;;2.90;2.22;;;17.50;76.90;;;;;;5032743;28;20237;-68
2022/11/15 07:23:23;;;;;;;2.20;2.00;;;17.50;77.00;;;;;;5032827;28;20330;-68
2022/11/15 07:26:08;;;;;;;2.45;2.15;;;17.50;77.00;;;;;;5032782;28;20260;-68
2022/11/15 07:28:53;;;;;;;3.30;2.63;;;17.50;77.10;;;;;;5032574;28;20197;-69
2022/11/15 07:31:37;;;;;;;2.95;2.55;;;17.50;76.90;;;;;;5033668;28;20203;-69
2022/11/15 07:34:23;;;;;;;2.70;2.50;;;17.50;76.90;;;;;;5032255;28;20257;-68
2022/11/15 07:37:08;;;;;;;2.55;2.20;;;17.50;76.80;;;;;;5033688;28;20198;-68
2022/11/15 07:39:52;;;;;;;2.47;2.28;;;17.50;76.80;;;;;;5032433;28;20261;-69
2022/11/15 07:42:54;;;;;;;3.10;2.55;;;17.50;76.90;;;;;;5031613;28;20221;-69
2022/11/15 07:45:45;;;;;;;3.17;2.60;;;17.50;76.80;;;;;;5033799;28;20260;-68
2022/11/15 07:48:30;;;;;;;2.95;2.75;;;17.50;76.80;;;;;;5032431;28;20198;-69
2022/11/15 07:51:16;;;;;;;3.67;3.00;;;17.50;76.80;;;;;;5032424;28;20214;-68
2022/11/15 07:54:01;;;;;;;2.72;2.20;;;17.50;76.80;;;;;;5032189;28;20222;-68
2022/11/15 07:56:45;;;;;;;3.65;3.00;;;17.50;76.70;;;;;;5032263;28;20241;-68
2022/11/15 07:59:29;;;;;;;2.95;2.75;;;17.60;76.80;;;;;;5031938;28;20218;-68
2022/11/15 08:02:16;;;;;;;3.13;2.85;;;17.60;76.70;;;;;;5032111;28;20245;-68
2022/11/15 08:05:00;;;;;;;4.40;3.20;;;17.50;76.60;;;;;;5033093;28;20274;-68
2022/11/15 08:07:45;;;;;;;3.53;2.83;;;17.50;76.70;;;;;;5032077;28;20198;-69
2022/11/15 08:10:29;;;;;;;3.08;2.78;;;17.50;76.70;;;;;;5031985;28;20233;-70
2022/11/15 08:13:14;;;;;;;3.22;2.60;;;17.50;76.70;;;;;;5032915;28;20214;-69
2022/11/15 08:16:00;;;;;;;2.85;2.63;;;17.60;76.80;;;;;;5031711;28;20265;-68
2022/11/15 08:18:44;;;;;;;3.90;2.75;;;17.50;76.70;;;;;;5033012;28;20662;-68
2022/11/15 08:21:29;;;;;;;3.40;3.05;;;17.50;76.60;;;;;;5031932;28;20214;-68
2022/11/15 08:24:14;;;;;;;3.20;2.90;;;17.50;76.70;;;;;;5058400;23;20305;-71
2022/11/15 08:26:58;;;;;;;3.63;2.97;;;17.50;76.70;;;;;;5037510;28;20194;-71
2022/11/15 08:29:44;;;;;;;4.00;3.60;;;17.60;76.80;;;;;;5037353;28;20685;-71
2022/11/15 08:32:29;;;;;;;5.00;3.53;;;17.60;76.80;;;;;;5051442;28;20221;-71
2022/11/15 08:35:14;;;;;;;4.10;3.40;;;17.60;76.80;;;;;;5037327;28;20293;-71
2022/11/15 08:37:58;;;;;;;3.58;3.15;;;17.60;76.80;;;;;;5037574;28;20243;-71
2022/11/15 08:40:42;;;;;;;4.53;3.35;;;17.60;76.80;;;;;;5036851;28;20197;-70
2022/11/15 08:43:26;;;;;;;3.72;3.20;;;17.60;76.70;;;;;;5037737;28;20255;-71
2022/11/15 08:46:13;;;;;;;4.60;3.83;;;17.60;76.80;;;;;;5031516;28;20268;-71
2022/11/15 08:48:57;;;;;;;4.03;3.40;;;17.60;76.80;;;;;;5032349;28;20206;-70
2022/11/15 08:51:42;;;;;;;3.42;3.13;;;17.60;76.80;;;;;;5032353;28;20267;-70
2022/11/15 08:54:27;;;;;;;4.35;3.67;;;17.60;76.70;;;;;;5017020;28;20265;-71
2022/11/15 08:57:11;;;;;;;3.53;3.22;;;17.60;76.80;;;;;;5032055;28;20572;-71
2022/11/15 08:59:56;;;;;;;4.05;3.63;;;17.60;76.80;;;;;;5031926;28;20198;-71
2022/11/15 09:02:41;;;;;;;4.13;3.53;;;17.60;76.80;;;;;;5023799;28;20244;-71
2022/11/15 09:05:26;;;;;;;4.45;3.45;;;17.60;76.80;;;;;;5037096;28;20221;-71
2022/11/15 09:08:12;;;;;;;3.97;3.58;;;17.60;76.80;;;;;;5036960;28;20281;-71
2022/11/15 09:10:57;;;;;;;4.32;3.58;;;17.60;76.80;;;;;;5036603;28;20251;-71
2022/11/15 09:13:41;;;;;;;4.00;3.58;;;17.60;76.80;;;;;;5052158;28;20209;-71
2022/11/15 09:16:26;;;;;;;4.07;3.67;;;17.60;76.80;;;;;;5051826;28;20177;-71
2022/11/15 09:19:11;;;;;;;4.22;3.83;;;17.60;76.80;;;;;;5051758;28;20279;-69
2022/11/15 09:21:55;;;;;;;5.30;3.63;;;17.60;76.70;;;;;;5051731;28;20232;-71
2022/11/15 09:24:39;;;;;;;3.97;3.63;;;17.70;76.80;;;;;;5051395;28;20225;-71
2022/11/15 09:27:29;;;;;;;3.90;3.60;;;17.70;76.70;;;;;;5051710;28;20271;-70
2022/11/15 09:30:13;;;;;;;4.47;4.07;;;17.70;76.90;;;;;;5036732;28;20260;-71
2022/11/15 09:32:57;;;;;;;4.60;4.00;;;17.70;76.90;;;;;;5051612;28;20291;-71
2022/11/15 09:35:41;;;;;;;4.47;3.92;;;17.70;76.80;;;;;;5051642;28;20245;-71
2022/11/15 09:38:27;;;;;;;4.75;3.83;;;17.70;76.80;;;;;;5051637;28;20196;-71
2022/11/15 09:41:13;;;;;;;4.28;3.88;;;17.70;76.60;;;;;;5036240;28;20193;-71
2022/11/15 09:44:34;;;;;;;3.45;3.15;;;17.70;76.80;;;;;;5036558;28;20209;-70
2022/11/15 09:48:05;;;;;;;4.65;4.18;;;17.70;76.90;;;;;;5030578;28;20249;-71
2022/11/15 09:50:58;;;;;;;4.40;3.83;;;17.70;76.90;;;;;;5030311;28;20190;-70
2022/11/15 09:53:40;;;;;;;4.13;3.72;;;17.70;76.80;;;;;;4997488;28;20211;-71
2022/11/15 09:56:20;;;;;;;3.75;3.45;;;17.70;76.80;;;;;;4997605;28;20207;-71
2022/11/15 09:59:28;;;;;;;4.13;3.72;;;17.70;76.80;;;;;;5013915;28;20203;-71
2022/11/15 10:02:54;;;;;;;4.10;3.45;;;17.70;76.80;;;;;;4997803;28;20675;-70
2022/11/15 10:05:25;;;;;;;3.60;3.30;;;17.70;76.70;;;;;;5015293;28;20257;-70
2022/11/15 10:08:34;;;;;;;3.83;3.50;;;17.70;76.80;;;;;;5018007;28;20168;-71
2022/11/15 10:11:06;;;;;;;3.75;3.15;;;17.70;76.80;;;;;;5017955;28;20184;-70
2022/11/15 10:13:36;;;;;;;3.97;3.35;;;17.70;76.90;;;;;;5034249;28;20210;-70
2022/11/15 10:16:54;;;;;;;4.63;3.58;;;17.70;76.80;;;;;;5018076;28;20199;-70
2022/11/15 10:20:17;;;;;;;3.42;3.13;;;17.70;76.80;;;;;;5013844;28;20195;-70
2022/11/15 10:22:53;;;;;;;3.75;3.35;;;17.70;76.90;;;;;;5034142;28;20197;-70
2022/11/15 10:25:29;;;;;;;4.50;3.25;;;17.80;76.90;;;;;;5017595;28;20305;-71
2022/11/15 10:28:12;;;;;;;3.92;3.50;;;17.80;76.90;;;;;;5017587;28;20190;-71
2022/11/15 10:30:46;;;;;;;3.38;2.95;;;17.80;76.90;;;;;;5017343;28;20214;-71
2022/11/15 10:33:33;;;;;;;3.00;2.80;;;17.80;76.90;;;;;;5033998;28;20685;-68
2022/11/15 10:36:20;;;;;;;3.67;3.38;;;17.80;77.30;;;;;;5017148;28;20208;-70
2022/11/15 10:38:49;;;;;;;3.30;3.00;;;17.80;77.10;;;;;;5019810;28;20171;-71
2022/11/15 10:41:27;;;;;;;3.50;3.20;;;17.80;77.00;;;;;;5001078;28;20265;-70
2022/11/15 10:44:20;;;;;;;3.50;3.20;;;17.80;77.10;;;;;;5017244;28;20273;-71
2022/11/15 10:47:04;;;;;;;3.53;3.22;;;17.80;77.00;;;;;;5017298;28;20187;-71
2022/11/15 10:49:33;;;;;;;3.28;2.97;;;17.80;77.00;;;;;;5016996;28;20179;-70
2022/11/15 10:52:01;;;;;;;3.88;3.05;;;17.80;77.00;;;;;;5001066;28;20183;-70
2022/11/15 10:55:11;;;;;;;3.67;2.80;;;17.80;77.00;;;;;;5017154;28;20302;-70
2022/11/15 10:57:39;;;;;;;3.30;3.00;;;17.80;77.10;;;;;;4987218;28;20261;-70
2022/11/15 11:00:20;;;;;;;3.75;3.30;;;17.80;77.10;;;;;;5000667;28;20178;-70
2022/11/15 11:03:03;;;;;;;3.88;3.05;;;17.80;77.10;;;;;;5000950;28;20198;-71
2022/11/15 11:05:39;;;;;;;3.17;2.88;;;17.80;77.00;;;;;;5014888;28;20214;-70
2022/11/15 11:08:11;;;;;;;3.05;2.75;;;17.80;77.10;;;;;;5032399;28;20199;-70
2022/11/15 11:10:37;;;;;;;3.53;3.20;;;17.80;77.10;;;;;;5027860;28;20195;-70
2022/11/15 11:13:21;;;;;;;2.90;2.67;;;17.80;77.10;;;;;;5034368;28;20203;-71
2022/11/15 11:15:59;;;;;;;3.72;3.28;;;17.80;77.20;;;;;;5016785;28;20210;-70
2022/11/15 11:18:37;;;;;;;3.30;2.80;;;17.80;77.30;;;;;;5015820;28;20183;-70
2022/11/15 11:21:14;;;;;;;2.85;2.55;;;17.80;77.30;;;;;;5027901;28;20187;-70
2022/11/15 11:24:08;;;;;;;3.15;2.85;;;17.80;77.10;;;;;;5033754;28;20233;-70
2022/11/15 11:27:26;;;;;;;2.83;2.58;;;17.80;77.20;;;;;;5036355;28;20192;-70
2022/11/15 11:30:20;;;;;;;3.80;2.65;;;17.80;77.30;;;;;;5055694;28;20194;-70
2022/11/15 11:33:31;;;;;;;3.08;2.88;;;17.80;77.40;;;;;;5004371;28;20215;-71
2022/11/15 11:36:16;;;;;;;2.70;2.50;;;17.80;77.30;;;;;;5032827;28;20199;-70
2022/11/15 11:39:14;;;;;;;3.83;2.88;;;17.80;77.20;;;;;;5032816;28;20187;-69
2022/11/15 11:41:45;;;;;;;3.05;2.42;;;17.80;77.80;;;;;;5032636;28;20270;-70
2022/11/15 11:44:33;;;;;;;3.53;2.60;;;17.80;77.60;;;;;;5033883;28;20183;-70
2022/11/15 11:47:18;;;;;;;2.72;2.50;;;17.80;77.40;;;;;;5016142;28;20248;-70
2022/11/15 11:50:10;;;;;;;2.85;2.28;;;17.90;77.50;;;;;;5033636;28;20172;-70
2022/11/15 11:52:56;;;;;;;2.70;2.50;;;17.80;77.40;;;;;;5015823;28;20219;-70
2022/11/15 11:55:39;;;;;;;2.47;2.20;;;17.90;77.60;;;;;;5033577;28;20203;-71
2022/11/15 11:58:46;;;;;;;3.42;2.58;;;17.90;77.70;;;;;;4999964;28;20194;-70
2022/11/15 12:01:24;;;;;;;2.42;2.22;;;17.90;77.50;;;;;;4937180;29;20194;-70
2022/11/15 12:04:24;;;;;;;2.88;2.67;;;17.90;77.60;;;;;;4937263;29;20185;-70
2022/11/15 12:07:27;;;;;;;2.63;2.40;;;17.80;77.40;;;;;;5004352;28;20253;-70
2022/11/15 12:10:03;;;;;;;2.67;2.38;;;17.90;77.60;;;;;;4984265;28;20218;-70
2022/11/15 12:12:39;;;;;;;2.80;2.25;;;17.90;77.70;;;;;;5015658;28;20226;-69
2022/11/15 12:15:17;;;;;;;2.70;2.50;;;17.90;77.70;;;;;;5032201;28;20199;-71
2022/11/15 12:17:44;;;;;;;2.50;2.30;;;17.90;77.60;;;;;;5052055;28;20331;-70
2022/11/15 12:20:22;;;;;;;2.47;2.28;;;17.90;78.30;;;;;;5034990;28;20244;-69
2022/11/15 12:23:04;;;;;;;2.63;2.15;;;17.80;77.30;;;;;;5030948;28;20335;-71
2022/11/15 12:25:53;;;;;;;2.28;2.08;;;17.90;77.60;;;;;;5015400;28;20218;-70
2022/11/15 12:28:52;;;;;;;2.40;2.20;;;17.90;77.70;;;;;;5015455;28;20594;-71
2022/11/15 12:31:44;;;;;;;3.70;2.45;;;17.90;77.60;;;;;;4999177;28;20195;-70
2022/11/15 12:34:22;;;;;;;2.33;1.75;;;17.90;77.60;;;;;;5015208;28;20222;-70
2022/11/15 12:36:50;;;;;;;2.53;2.05;;;17.90;77.70;;;;;;4998971;28;20187;-71
2022/11/15 12:39:17;;;;;;;3.08;2.20;;;17.80;77.50;;;;;;4999166;28;20249;-71
2022/11/15 12:41:56;;;;;;;2.50;2.22;;;17.90;77.70;;;;;;4998878;28;20187;-71
2022/11/15 12:44:31;;;;;;;3.40;2.20;;;17.90;77.60;;;;;;5015092;28;20229;-71
2022/11/15 12:47:24;;;;;;;2.42;1.90;;;17.90;77.60;;;;;;5032692;28;20187;-70
2022/11/15 12:49:50;;;;;;;2.58;2.10;;;17.90;77.40;;;;;;5032549;28;20186;-70
2022/11/15 12:52:17;;;;;;;2.50;2.00;;;17.90;77.70;;;;;;5015396;28;20237;-70
2022/11/15 12:54:42;;;;;;;2.35;2.10;;;17.90;77.70;;;;;;4998789;28;20234;-70
2022/11/15 12:57:08;;;;;;;3.10;2.30;;;17.90;77.50;;;;;;4998629;28;20229;-70
2022/11/15 12:59:58;;;;;;;2.00;1.80;;;17.90;77.50;;;;;;5031417;28;20188;-69
2022/11/15 13:02:38;;;;;;;2.58;2.30;;;17.90;77.40;;;;;;5014905;28;20187;-70
2022/11/15 13:05:19;;;;;;;2.20;2.00;;;17.90;77.70;;;;;;5014590;28;20207;-70
2022/11/15 13:07:45;;;;;;;2.42;2.08;;;17.90;77.40;;;;;;5014906;28;20176;-70
2022/11/15 13:10:13;;;;;;;2.28;2.08;;;17.90;77.50;;;;;;5014824;28;20190;-70
2022/11/15 13:12:44;;;;;;;2.70;1.90;;;17.90;77.50;;;;;;4998350;28;20694;-70
2022/11/15 13:15:13;;;;;;;2.00;1.80;;;17.90;77.60;;;;;;5014810;28;20207;-70
2022/11/15 13:17:54;;;;;;;1.73;1.60;;;17.90;77.70;;;;;;5014746;28;20187;-70
2022/11/15 13:20:32;;;;;;;2.72;2.20;;;17.90;77.40;;;;;;4998185;28;20183;-71
2022/11/15 13:23:12;;;;;;;1.95;1.77;;;17.90;77.50;;;;;;5014584;28;20224;-70
2022/11/15 13:26:12;;;;;;;2.25;1.80;;;17.90;77.50;;;;;;5014379;28;20689;-71
2022/11/15 13:28:45;;;;;;;2.00;1.90;;;17.90;77.40;;;;;;5032223;28;20183;-70
2022/11/15 13:31:27;;;;;;;2.92;1.80;;;17.90;77.50;;;;;;5014475;28;20614;-71
2022/11/15 13:33:59;;;;;;;2.10;1.75;;;17.90;77.60;;;;;;5014543;28;20203;-70
2022/11/15 13:36:34;;;;;;;1.80;1.70;;;17.90;77.60;;;;;;5014679;28;20194;-71
2022/11/15 13:39:03;;;;;;;2.13;1.85;;;17.90;77.60;;;;;;5014314;28;20203;-70
2022/11/15 13:41:33;;;;;;;2.33;2.00;;;17.90;77.60;;;;;;5008652;28;20185;-71
2022/11/15 13:44:01;;;;;;;2.10;1.90;;;17.90;77.50;;;;;;5056275;28;20178;-71
2022/11/15 13:46:30;;;;;;;1.98;1.77;;;17.90;77.60;;;;;;5022074;28;20196;-71
2022/11/15 13:49:11;;;;;;;2.25;1.83;;;17.90;77.60;;;;;;5055885;28;20236;-71
2022/11/15 13:51:40;;;;;;;2.08;1.85;;;17.90;77.60;;;;;;5037506;28;20231;-71
2022/11/15 13:54:20;;;;;;;2.85;1.80;;;17.90;77.60;;;;;;5037393;28;20248;-71
2022/11/15 13:56:55;;;;;;;2.08;1.60;;;17.90;77.50;;;;;;5021141;28;20729;-71
2022/11/15 13:59:28;;;;;;;4.20;1.77;;;17.90;78.30;;;;;;5037478;28;20186;-71
2022/11/15 14:01:58;;;;;;;2.47;1.90;;;17.90;77.70;;;;;;5037505;28;20526;-71
2022/11/15 14:04:29;;;;;;;2.58;1.70;;;17.90;77.80;;;;;;5037549;28;20206;-71
2022/11/15 14:07:01;;;;;;;2.67;1.80;;;17.90;78.00;;;;;;5021120;28;20277;-71
2022/11/15 14:09:39;;;;;;;2.88;1.80;;;17.90;77.90;;;;;;5037162;28;20198;-71
2022/11/15 14:12:35;;;;;;;2.00;1.80;;;17.90;77.90;;;;;;5037270;28;20182;-71
2022/11/15 14:15:39;;;;;;;2.10;1.70;;;17.90;78.00;;;;;;5037299;28;20221;-71
2022/11/15 14:18:06;;;;;;;2.70;1.73;;;17.90;78.10;;;;;;4957689;28;20193;-71
2022/11/15 14:20:39;;;;;;;2.25;1.92;;;17.90;78.00;;;;;;4957840;28;20205;-71
2022/11/15 14:23:27;;;;;;;2.20;2.00;;;17.90;78.10;;;;;;4999323;28;20202;-71
2022/11/15 14:25:58;;;;;;;2.50;2.13;;;17.90;78.10;;;;;;5085073;22;20236;-70
2022/11/15 14:28:24;;;;;;;2.15;1.92;;;17.90;78.20;;;;;;5039917;28;20182;-69
2022/11/15 14:30:52;;;;;;;2.22;2.03;;;17.90;78.30;;;;;;5037688;28;20233;-69